sensor_id;sensor_type;location;lat;lon;timestamp;P1;durP1;ratioP1;P2;durP2;ratioP2
17631;SDS011;8934;51.194;17.150;2023-03-11T00:02:41;4.57;;;2.70;;
17631;SDS011;8934;51.194;17.150;2023-03-11T00:05:30;4.97;;;2.53;;
17631;SDS011;8934;51.194;17.150;2023-03-11T00:08:20;5.50;;;2.75;;
17631;SDS011;8934;51.194;17.150;2023-03-11T00:11:09;4.63;;;2.78;;
17631;SDS011;8934;51.194;17.150;2023-03-11T00:13:58;5.97;;;3.42;;
17631;SDS011;8934;51.194;17.150;2023-03-11T00:16:46;4.70;;;2.90;;
17631;SDS011;8934;51.194;17.150;2023-03-11T00:19:33;5.82;;;3.20;;
17631;SDS011;8934;51.194;17.150;2023-03-11T00:22:21;4.72;;;2.65;;
17631;SDS011;8934;51.194;17.150;2023-03-11T00:25:09;8.10;;;3.92;;
17631;SDS011;8934;51.194;17.150;2023-03-11T00:27:57;10.00;;;4.55;;
17631;SDS011;8934;51.194;17.150;2023-03-11T00:30:46;10.38;;;4.10;;
17631;SDS011;8934;51.194;17.150;2023-03-11T00:33:34;12.30;;;5.50;;
17631;SDS011;8934;51.194;17.150;2023-03-11T00:36:23;13.77;;;6.20;;
17631;SDS011;8934;51.194;17.150;2023-03-11T00:39:16;9.25;;;5.05;;
17631;SDS011;8934;51.194;17.150;2023-03-11T00:42:03;7.72;;;4.32;;
17631;SDS011;8934;51.194;17.150;2023-03-11T00:44:52;4.93;;;2.72;;
17631;SDS011;8934;51.194;17.150;2023-03-11T00:47:41;2.65;;;1.88;;
17631;SDS011;8934;51.194;17.150;2023-03-11T00:50:30;2.15;;;1.50;;
17631;SDS011;8934;51.194;17.150;2023-03-11T00:53:19;3.65;;;1.77;;
17631;SDS011;8934;51.194;17.150;2023-03-11T00:56:07;6.40;;;2.75;;
17631;SDS011;8934;51.194;17.150;2023-03-11T00:58:56;4.95;;;2.17;;
17631;SDS011;8934;51.194;17.150;2023-03-11T01:01:44;4.75;;;2.45;;
17631;SDS011;8934;51.194;17.150;2023-03-11T01:04:33;4.57;;;2.53;;
17631;SDS011;8934;51.194;17.150;2023-03-11T01:07:21;4.30;;;1.63;;
17631;SDS011;8934;51.194;17.150;2023-03-11T01:10:09;4.05;;;1.83;;
17631;SDS011;8934;51.194;17.150;2023-03-11T01:12:58;1.60;;;1.20;;
17631;SDS011;8934;51.194;17.150;2023-03-11T01:15:46;2.53;;;1.40;;
17631;SDS011;8934;51.194;17.150;2023-03-11T01:18:33;2.60;;;1.33;;
17631;SDS011;8934;51.194;17.150;2023-03-11T01:21:22;1.75;;;1.00;;
17631;SDS011;8934;51.194;17.150;2023-03-11T01:24:10;0.60;;;0.60;;
17631;SDS011;8934;51.194;17.150;2023-03-11T01:26:57;0.47;;;0.45;;
17631;SDS011;8934;51.194;17.150;2023-03-11T01:29:45;1.65;;;0.30;;
17631;SDS011;8934;51.194;17.150;2023-03-11T01:32:32;0.40;;;0.30;;
17631;SDS011;8934;51.194;17.150;2023-03-11T01:35:21;0.43;;;0.30;;
17631;SDS011;8934;51.194;17.150;2023-03-11T01:38:12;1.48;;;0.43;;
17631;SDS011;8934;51.194;17.150;2023-03-11T01:41:02;0.28;;;0.28;;
17631;SDS011;8934;51.194;17.150;2023-03-11T01:43:51;1.95;;;0.50;;
17631;SDS011;8934;51.194;17.150;2023-03-11T01:50:10;0.88;;;0.68;;
17631;SDS011;8934;51.194;17.150;2023-03-11T01:52:59;1.40;;;0.70;;
17631;SDS011;8934;51.194;17.150;2023-03-11T01:55:49;0.75;;;0.50;;
17631;SDS011;8934;51.194;17.150;2023-03-11T01:58:38;0.80;;;0.40;;
17631;SDS011;8934;51.194;17.150;2023-03-11T02:01:30;0.57;;;0.50;;
17631;SDS011;8934;51.194;17.150;2023-03-11T02:04:20;0.60;;;0.60;;
17631;SDS011;8934;51.194;17.150;2023-03-11T02:07:08;0.70;;;0.40;;
17631;SDS011;8934;51.194;17.150;2023-03-11T02:09:57;0.50;;;0.28;;
17631;SDS011;8934;51.194;17.150;2023-03-11T02:12:48;0.47;;;0.30;;
17631;SDS011;8934;51.194;17.150;2023-03-11T02:15:40;0.40;;;0.30;;
17631;SDS011;8934;51.194;17.150;2023-03-11T02:18:27;0.75;;;0.38;;
17631;SDS011;8934;51.194;17.150;2023-03-11T02:21:19;0.45;;;0.35;;
17631;SDS011;8934;51.194;17.150;2023-03-11T02:27:05;1.30;;;0.60;;
17631;SDS011;8934;51.194;17.150;2023-03-11T02:29:55;1.73;;;0.43;;
17631;SDS011;8934;51.194;17.150;2023-03-11T02:32:46;0.65;;;0.30;;
17631;SDS011;8934;51.194;17.150;2023-03-11T02:35:35;0.52;;;0.35;;
17631;SDS011;8934;51.194;17.150;2023-03-11T02:38:23;0.95;;;0.65;;
17631;SDS011;8934;51.194;17.150;2023-03-11T02:41:11;0.60;;;0.50;;
17631;SDS011;8934;51.194;17.150;2023-03-11T02:44:03;0.95;;;0.60;;
17631;SDS011;8934;51.194;17.150;2023-03-11T02:46:52;1.00;;;0.60;;
17631;SDS011;8934;51.194;17.150;2023-03-11T02:49:40;0.52;;;0.40;;
17631;SDS011;8934;51.194;17.150;2023-03-11T02:52:28;0.82;;;0.50;;
17631;SDS011;8934;51.194;17.150;2023-03-11T02:55:19;0.47;;;0.43;;
17631;SDS011;8934;51.194;17.150;2023-03-11T02:58:07;0.55;;;0.50;;
17631;SDS011;8934;51.194;17.150;2023-03-11T03:00:56;1.13;;;0.45;;
17631;SDS011;8934;51.194;17.150;2023-03-11T03:03:44;1.23;;;0.57;;
17631;SDS011;8934;51.194;17.150;2023-03-11T03:06:32;0.45;;;0.40;;
17631;SDS011;8934;51.194;17.150;2023-03-11T03:09:19;2.05;;;0.68;;
17631;SDS011;8934;51.194;17.150;2023-03-11T03:12:07;0.55;;;0.55;;
17631;SDS011;8934;51.194;17.150;2023-03-11T03:14:55;0.88;;;0.88;;
17631;SDS011;8934;51.194;17.150;2023-03-11T03:17:45;1.15;;;0.77;;
17631;SDS011;8934;51.194;17.150;2023-03-11T03:20:32;0.50;;;0.50;;
17631;SDS011;8934;51.194;17.150;2023-03-11T03:23:20;1.33;;;0.52;;
17631;SDS011;8934;51.194;17.150;2023-03-11T03:26:10;1.02;;;0.93;;
17631;SDS011;8934;51.194;17.150;2023-03-11T03:29:02;1.80;;;1.38;;
17631;SDS011;8934;51.194;17.150;2023-03-11T03:31:50;1.38;;;1.10;;
17631;SDS011;8934;51.194;17.150;2023-03-11T03:34:39;1.70;;;1.38;;
17631;SDS011;8934;51.194;17.150;2023-03-11T03:37:27;1.88;;;1.05;;
17631;SDS011;8934;51.194;17.150;2023-03-11T03:40:18;0.70;;;0.60;;
17631;SDS011;8934;51.194;17.150;2023-03-11T03:43:06;2.30;;;0.60;;
17631;SDS011;8934;51.194;17.150;2023-03-11T03:45:56;0.50;;;0.50;;
17631;SDS011;8934;51.194;17.150;2023-03-11T03:48:48;0.55;;;0.40;;
17631;SDS011;8934;51.194;17.150;2023-03-11T03:51:37;0.73;;;0.57;;
17631;SDS011;8934;51.194;17.150;2023-03-11T03:54:29;0.43;;;0.40;;
17631;SDS011;8934;51.194;17.150;2023-03-11T03:57:17;1.98;;;0.43;;
17631;SDS011;8934;51.194;17.150;2023-03-11T04:00:07;0.30;;;0.30;;
17631;SDS011;8934;51.194;17.150;2023-03-11T04:02:58;0.50;;;0.40;;
17631;SDS011;8934;51.194;17.150;2023-03-11T04:08:52;0.30;;;0.30;;
17631;SDS011;8934;51.194;17.150;2023-03-11T04:11:45;0.95;;;0.40;;
17631;SDS011;8934;51.194;17.150;2023-03-11T04:14:34;0.30;;;0.30;;
17631;SDS011;8934;51.194;17.150;2023-03-11T04:17:23;0.35;;;0.35;;
17631;SDS011;8934;51.194;17.150;2023-03-11T04:20:13;0.40;;;0.40;;
17631;SDS011;8934;51.194;17.150;2023-03-11T04:23:04;0.50;;;0.50;;
17631;SDS011;8934;51.194;17.150;2023-03-11T04:25:53;0.50;;;0.40;;
17631;SDS011;8934;51.194;17.150;2023-03-11T04:28:40;1.23;;;0.85;;
17631;SDS011;8934;51.194;17.150;2023-03-11T04:31:28;0.60;;;0.57;;
17631;SDS011;8934;51.194;17.150;2023-03-11T04:34:18;0.68;;;0.68;;
17631;SDS011;8934;51.194;17.150;2023-03-11T04:37:07;0.73;;;0.70;;
17631;SDS011;8934;51.194;17.150;2023-03-11T04:39:55;0.70;;;0.60;;
17631;SDS011;8934;51.194;17.150;2023-03-11T04:42:44;0.90;;;0.50;;
17631;SDS011;8934;51.194;17.150;2023-03-11T04:45:32;0.70;;;0.70;;
17631;SDS011;8934;51.194;17.150;2023-03-11T04:48:22;1.00;;;1.00;;
17631;SDS011;8934;51.194;17.150;2023-03-11T04:51:12;0.60;;;0.60;;
17631;SDS011;8934;51.194;17.150;2023-03-11T04:54:00;1.45;;;0.90;;
17631;SDS011;8934;51.194;17.150;2023-03-11T04:56:49;0.70;;;0.70;;
17631;SDS011;8934;51.194;17.150;2023-03-11T04:59:38;0.80;;;0.80;;
17631;SDS011;8934;51.194;17.150;2023-03-11T05:02:27;0.95;;;0.90;;
17631;SDS011;8934;51.194;17.150;2023-03-11T05:05:17;0.80;;;0.80;;
17631;SDS011;8934;51.194;17.150;2023-03-11T05:08:05;1.13;;;0.90;;
17631;SDS011;8934;51.194;17.150;2023-03-11T05:10:53;0.93;;;0.90;;
17631;SDS011;8934;51.194;17.150;2023-03-11T05:13:41;1.23;;;1.00;;
17631;SDS011;8934;51.194;17.150;2023-03-11T05:16:30;1.50;;;1.38;;
17631;SDS011;8934;51.194;17.150;2023-03-11T05:19:18;1.17;;;1.00;;
17631;SDS011;8934;51.194;17.150;2023-03-11T05:22:28;1.23;;;1.10;;
17631;SDS011;8934;51.194;17.150;2023-03-11T05:25:17;1.40;;;1.30;;
17631;SDS011;8934;51.194;17.150;2023-03-11T05:28:05;2.05;;;1.75;;
17631;SDS011;8934;51.194;17.150;2023-03-11T05:30:57;1.77;;;1.50;;
17631;SDS011;8934;51.194;17.150;2023-03-11T05:33:49;1.55;;;1.30;;
17631;SDS011;8934;51.194;17.150;2023-03-11T05:36:38;1.88;;;1.73;;
17631;SDS011;8934;51.194;17.150;2023-03-11T05:39:25;1.65;;;1.50;;
17631;SDS011;8934;51.194;17.150;2023-03-11T05:42:13;1.73;;;1.60;;
17631;SDS011;8934;51.194;17.150;2023-03-11T05:45:03;1.70;;;1.50;;
17631;SDS011;8934;51.194;17.150;2023-03-11T05:47:52;1.95;;;1.80;;
17631;SDS011;8934;51.194;17.150;2023-03-11T05:50:41;1.80;;;1.70;;
17631;SDS011;8934;51.194;17.150;2023-03-11T05:53:29;2.67;;;2.15;;
17631;SDS011;8934;51.194;17.150;2023-03-11T05:56:17;3.10;;;1.80;;
17631;SDS011;8934;51.194;17.150;2023-03-11T05:59:07;2.85;;;1.90;;
17631;SDS011;8934;51.194;17.150;2023-03-11T06:01:56;2.10;;;1.90;;
17631;SDS011;8934;51.194;17.150;2023-03-11T06:04:44;2.30;;;1.95;;
17631;SDS011;8934;51.194;17.150;2023-03-11T06:07:35;2.20;;;1.98;;
17631;SDS011;8934;51.194;17.150;2023-03-11T06:10:24;2.40;;;2.20;;
17631;SDS011;8934;51.194;17.150;2023-03-11T06:13:12;2.20;;;2.00;;
17631;SDS011;8934;51.194;17.150;2023-03-11T06:16:08;3.63;;;1.80;;
17631;SDS011;8934;51.194;17.150;2023-03-11T06:18:56;1.92;;;1.67;;
17631;SDS011;8934;51.194;17.150;2023-03-11T06:21:48;1.65;;;1.55;;
17631;SDS011;8934;51.194;17.150;2023-03-11T06:24:37;1.77;;;1.50;;
17631;SDS011;8934;51.194;17.150;2023-03-11T06:27:25;1.80;;;1.42;;
17631;SDS011;8934;51.194;17.150;2023-03-11T06:30:13;3.47;;;1.25;;
17631;SDS011;8934;51.194;17.150;2023-03-11T06:33:10;1.45;;;1.35;;
17631;SDS011;8934;51.194;17.150;2023-03-11T06:36:00;1.85;;;1.27;;
17631;SDS011;8934;51.194;17.150;2023-03-11T06:38:50;2.25;;;1.55;;
17631;SDS011;8934;51.194;17.150;2023-03-11T06:41:41;2.15;;;1.75;;
17631;SDS011;8934;51.194;17.150;2023-03-11T06:44:30;2.92;;;2.00;;
17631;SDS011;8934;51.194;17.150;2023-03-11T06:47:17;3.25;;;2.45;;
17631;SDS011;8934;51.194;17.150;2023-03-11T06:50:06;2.33;;;1.95;;
17631;SDS011;8934;51.194;17.150;2023-03-11T06:52:54;3.50;;;1.73;;
17631;SDS011;8934;51.194;17.150;2023-03-11T06:55:43;2.10;;;1.90;;
17631;SDS011;8934;51.194;17.150;2023-03-11T06:58:32;2.65;;;2.25;;
17631;SDS011;8934;51.194;17.150;2023-03-11T07:01:21;2.22;;;1.95;;
17631;SDS011;8934;51.194;17.150;2023-03-11T07:04:12;3.63;;;2.15;;
17631;SDS011;8934;51.194;17.150;2023-03-11T07:07:01;2.85;;;1.95;;
17631;SDS011;8934;51.194;17.150;2023-03-11T07:09:48;3.65;;;2.15;;
17631;SDS011;8934;51.194;17.150;2023-03-11T07:12:35;5.38;;;2.13;;
17631;SDS011;8934;51.194;17.150;2023-03-11T07:15:25;3.25;;;2.10;;
17631;SDS011;8934;51.194;17.150;2023-03-11T07:18:13;2.85;;;2.20;;
17631;SDS011;8934;51.194;17.150;2023-03-11T07:21:03;3.63;;;2.38;;
17631;SDS011;8934;51.194;17.150;2023-03-11T07:23:52;4.70;;;2.55;;
17631;SDS011;8934;51.194;17.150;2023-03-11T07:26:40;2.50;;;2.30;;
17631;SDS011;8934;51.194;17.150;2023-03-11T07:29:29;4.57;;;2.95;;
17631;SDS011;8934;51.194;17.150;2023-03-11T07:32:18;5.03;;;2.58;;
17631;SDS011;8934;51.194;17.150;2023-03-11T07:35:06;4.88;;;2.55;;
17631;SDS011;8934;51.194;17.150;2023-03-11T07:37:54;3.78;;;2.90;;
17631;SDS011;8934;51.194;17.150;2023-03-11T07:40:42;4.70;;;2.53;;
17631;SDS011;8934;51.194;17.150;2023-03-11T07:43:30;4.47;;;2.65;;
17631;SDS011;8934;51.194;17.150;2023-03-11T07:46:18;5.40;;;3.08;;
17631;SDS011;8934;51.194;17.150;2023-03-11T07:49:09;4.60;;;2.50;;
17631;SDS011;8934;51.194;17.150;2023-03-11T07:51:57;3.70;;;2.53;;
17631;SDS011;8934;51.194;17.150;2023-03-11T07:54:44;5.50;;;3.28;;
17631;SDS011;8934;51.194;17.150;2023-03-11T07:57:32;4.68;;;2.95;;
17631;SDS011;8934;51.194;17.150;2023-03-11T08:00:20;4.32;;;2.58;;
17631;SDS011;8934;51.194;17.150;2023-03-11T08:03:08;3.90;;;2.95;;
17631;SDS011;8934;51.194;17.150;2023-03-11T08:05:57;4.82;;;2.95;;
17631;SDS011;8934;51.194;17.150;2023-03-11T08:08:45;4.20;;;3.17;;
17631;SDS011;8934;51.194;17.150;2023-03-11T08:11:33;4.25;;;3.20;;
17631;SDS011;8934;51.194;17.150;2023-03-11T08:14:21;3.30;;;2.90;;
17631;SDS011;8934;51.194;17.150;2023-03-11T08:17:08;5.60;;;3.47;;
17631;SDS011;8934;51.194;17.150;2023-03-11T08:19:56;5.45;;;3.17;;
17631;SDS011;8934;51.194;17.150;2023-03-11T08:22:45;3.85;;;3.03;;
17631;SDS011;8934;51.194;17.150;2023-03-11T08:25:43;5.13;;;3.38;;
17631;SDS011;8934;51.194;17.150;2023-03-11T08:28:30;5.53;;;3.55;;
17631;SDS011;8934;51.194;17.150;2023-03-11T08:31:19;5.65;;;4.00;;
17631;SDS011;8934;51.194;17.150;2023-03-11T08:34:09;4.53;;;3.45;;
17631;SDS011;8934;51.194;17.150;2023-03-11T08:36:57;8.77;;;4.57;;
17631;SDS011;8934;51.194;17.150;2023-03-11T08:39:47;6.90;;;4.18;;
17631;SDS011;8934;51.194;17.150;2023-03-11T08:42:34;5.22;;;3.50;;
17631;SDS011;8934;51.194;17.150;2023-03-11T08:45:22;4.75;;;3.58;;
17631;SDS011;8934;51.194;17.150;2023-03-11T08:48:13;5.47;;;3.70;;
17631;SDS011;8934;51.194;17.150;2023-03-11T08:51:00;4.93;;;3.35;;
17631;SDS011;8934;51.194;17.150;2023-03-11T08:53:48;4.40;;;3.47;;
17631;SDS011;8934;51.194;17.150;2023-03-11T08:56:38;5.85;;;3.10;;
17631;SDS011;8934;51.194;17.150;2023-03-11T08:59:25;5.18;;;3.58;;
17631;SDS011;8934;51.194;17.150;2023-03-11T09:02:13;5.05;;;3.25;;
17631;SDS011;8934;51.194;17.150;2023-03-11T09:05:00;6.25;;;3.75;;
17631;SDS011;8934;51.194;17.150;2023-03-11T09:07:48;6.82;;;4.25;;
17631;SDS011;8934;51.194;17.150;2023-03-11T09:10:36;5.95;;;3.40;;
17631;SDS011;8934;51.194;17.150;2023-03-11T09:13:24;5.60;;;3.60;;
17631;SDS011;8934;51.194;17.150;2023-03-11T09:16:13;5.38;;;4.07;;
17631;SDS011;8934;51.194;17.150;2023-03-11T09:19:01;5.95;;;3.70;;
17631;SDS011;8934;51.194;17.150;2023-03-11T09:21:52;4.05;;;2.95;;
17631;SDS011;8934;51.194;17.150;2023-03-11T09:24:39;4.38;;;3.08;;
17631;SDS011;8934;51.194;17.150;2023-03-11T09:27:27;5.05;;;3.58;;
17631;SDS011;8934;51.194;17.150;2023-03-11T09:30:16;5.18;;;3.45;;
17631;SDS011;8934;51.194;17.150;2023-03-11T09:33:04;3.42;;;2.80;;
17631;SDS011;8934;51.194;17.150;2023-03-11T09:35:51;6.13;;;2.63;;
17631;SDS011;8934;51.194;17.150;2023-03-11T09:38:39;3.63;;;2.92;;
17631;SDS011;8934;51.194;17.150;2023-03-11T09:41:28;3.97;;;2.53;;
17631;SDS011;8934;51.194;17.150;2023-03-11T09:44:40;3.55;;;2.58;;
17631;SDS011;8934;51.194;17.150;2023-03-11T09:47:38;6.20;;;3.45;;
17631;SDS011;8934;51.194;17.150;2023-03-11T09:50:29;3.08;;;2.78;;
17631;SDS011;8934;51.194;17.150;2023-03-11T09:53:21;4.03;;;2.63;;
17631;SDS011;8934;51.194;17.150;2023-03-11T09:56:15;4.55;;;2.60;;
17631;SDS011;8934;51.194;17.150;2023-03-11T09:59:07;4.45;;;3.20;;
17631;SDS011;8934;51.194;17.150;2023-03-11T10:02:00;4.30;;;2.70;;
17631;SDS011;8934;51.194;17.150;2023-03-11T10:04:52;3.83;;;2.63;;
17631;SDS011;8934;51.194;17.150;2023-03-11T10:07:44;3.25;;;2.50;;
17631;SDS011;8934;51.194;17.150;2023-03-11T10:10:40;4.03;;;2.45;;
17631;SDS011;8934;51.194;17.150;2023-03-11T10:13:34;3.65;;;2.33;;
17631;SDS011;8934;51.194;17.150;2023-03-11T10:16:27;4.30;;;2.20;;
17631;SDS011;8934;51.194;17.150;2023-03-11T10:19:24;3.55;;;2.35;;
17631;SDS011;8934;51.194;17.150;2023-03-11T10:22:24;6.25;;;2.70;;
17631;SDS011;8934;51.194;17.150;2023-03-11T10:25:18;3.70;;;2.75;;
17631;SDS011;8934;51.194;17.150;2023-03-11T10:28:11;5.40;;;3.42;;
17631;SDS011;8934;51.194;17.150;2023-03-11T10:31:01;4.25;;;2.75;;
17631;SDS011;8934;51.194;17.150;2023-03-11T10:33:54;4.90;;;2.60;;
17631;SDS011;8934;51.194;17.150;2023-03-11T10:36:49;4.10;;;2.58;;
17631;SDS011;8934;51.194;17.150;2023-03-11T10:39:42;4.35;;;2.83;;
17631;SDS011;8934;51.194;17.150;2023-03-11T10:42:33;4.20;;;3.22;;
17631;SDS011;8934;51.194;17.150;2023-03-11T10:45:21;4.05;;;2.75;;
17631;SDS011;8934;51.194;17.150;2023-03-11T10:48:10;5.05;;;3.20;;
17631;SDS011;8934;51.194;17.150;2023-03-11T10:51:00;4.43;;;3.28;;
17631;SDS011;8934;51.194;17.150;2023-03-11T10:53:51;4.50;;;2.80;;
17631;SDS011;8934;51.194;17.150;2023-03-11T10:56:41;4.22;;;2.75;;
17631;SDS011;8934;51.194;17.150;2023-03-11T10:59:29;3.78;;;2.67;;
17631;SDS011;8934;51.194;17.150;2023-03-11T11:02:23;4.25;;;3.00;;
17631;SDS011;8934;51.194;17.150;2023-03-11T11:05:22;5.75;;;2.97;;
17631;SDS011;8934;51.194;17.150;2023-03-11T11:08:15;4.57;;;2.95;;
17631;SDS011;8934;51.194;17.150;2023-03-11T11:11:09;6.03;;;2.58;;
17631;SDS011;8934;51.194;17.150;2023-03-11T11:14:08;5.32;;;3.10;;
17631;SDS011;8934;51.194;17.150;2023-03-11T11:16:56;3.08;;;2.45;;
17631;SDS011;8934;51.194;17.150;2023-03-11T11:19:44;4.63;;;2.60;;
17631;SDS011;8934;51.194;17.150;2023-03-11T11:22:33;4.90;;;2.90;;
17631;SDS011;8934;51.194;17.150;2023-03-11T11:28:29;4.95;;;2.55;;
17631;SDS011;8934;51.194;17.150;2023-03-11T11:31:21;3.97;;;2.50;;
17631;SDS011;8934;51.194;17.150;2023-03-11T11:37:21;5.03;;;3.33;;
17631;SDS011;8934;51.194;17.150;2023-03-11T11:40:16;5.28;;;2.97;;
17631;SDS011;8934;51.194;17.150;2023-03-11T11:43:11;4.20;;;2.47;;
17631;SDS011;8934;51.194;17.150;2023-03-11T11:46:04;4.82;;;3.10;;
17631;SDS011;8934;51.194;17.150;2023-03-11T11:49:01;4.53;;;2.55;;
17631;SDS011;8934;51.194;17.150;2023-03-11T11:51:55;5.15;;;2.80;;
17631;SDS011;8934;51.194;17.150;2023-03-11T11:54:49;5.20;;;2.95;;
17631;SDS011;8934;51.194;17.150;2023-03-11T11:57:39;6.88;;;3.15;;
17631;SDS011;8934;51.194;17.150;2023-03-11T12:00:29;3.88;;;2.47;;
17631;SDS011;8934;51.194;17.150;2023-03-11T12:03:32;5.75;;;3.35;;
17631;SDS011;8934;51.194;17.150;2023-03-11T12:06:40;4.03;;;2.72;;
17631;SDS011;8934;51.194;17.150;2023-03-11T12:09:34;5.10;;;3.00;;
17631;SDS011;8934;51.194;17.150;2023-03-11T12:12:28;3.72;;;2.92;;
17631;SDS011;8934;51.194;17.150;2023-03-11T12:15:23;3.95;;;3.20;;
17631;SDS011;8934;51.194;17.150;2023-03-11T12:18:15;10.88;;;3.50;;
17631;SDS011;8934;51.194;17.150;2023-03-11T12:21:11;3.15;;;2.58;;
17631;SDS011;8934;51.194;17.150;2023-03-11T12:24:18;6.22;;;3.78;;
17631;SDS011;8934;51.194;17.150;2023-03-11T12:27:17;6.28;;;3.72;;
17631;SDS011;8934;51.194;17.150;2023-03-11T12:30:10;5.35;;;3.40;;
17631;SDS011;8934;51.194;17.150;2023-03-11T12:33:02;5.53;;;3.20;;
17631;SDS011;8934;51.194;17.150;2023-03-11T12:35:52;5.88;;;2.80;;
17631;SDS011;8934;51.194;17.150;2023-03-11T12:38:44;5.10;;;3.58;;
17631;SDS011;8934;51.194;17.150;2023-03-11T12:41:34;4.78;;;2.90;;
17631;SDS011;8934;51.194;17.150;2023-03-11T12:44:26;4.00;;;2.40;;
17631;SDS011;8934;51.194;17.150;2023-03-11T12:47:24;5.90;;;3.10;;
17631;SDS011;8934;51.194;17.150;2023-03-11T12:53:40;4.18;;;2.40;;
17631;SDS011;8934;51.194;17.150;2023-03-11T12:56:29;5.05;;;2.70;;
17631;SDS011;8934;51.194;17.150;2023-03-11T13:03:02;4.78;;;2.45;;
17631;SDS011;8934;51.194;17.150;2023-03-11T13:06:34;6.22;;;3.20;;
17631;SDS011;8934;51.194;17.150;2023-03-11T13:09:41;4.75;;;2.95;;
17631;SDS011;8934;51.194;17.150;2023-03-11T13:12:37;5.80;;;2.95;;
17631;SDS011;8934;51.194;17.150;2023-03-11T13:18:22;5.28;;;2.88;;
17631;SDS011;8934;51.194;17.150;2023-03-11T13:27:38;4.82;;;3.03;;
17631;SDS011;8934;51.194;17.150;2023-03-11T13:30:32;4.75;;;3.00;;
17631;SDS011;8934;51.194;17.150;2023-03-11T13:33:24;5.05;;;2.72;;
17631;SDS011;8934;51.194;17.150;2023-03-11T13:36:32;4.82;;;3.10;;
17631;SDS011;8934;51.194;17.150;2023-03-11T13:39:41;3.28;;;2.28;;
17631;SDS011;8934;51.194;17.150;2023-03-11T13:42:41;4.13;;;2.67;;
17631;SDS011;8934;51.194;17.150;2023-03-11T13:45:31;4.03;;;2.53;;
17631;SDS011;8934;51.194;17.150;2023-03-11T13:48:22;8.13;;;2.92;;
17631;SDS011;8934;51.194;17.150;2023-03-11T13:51:15;2.42;;;2.10;;
17631;SDS011;8934;51.194;17.150;2023-03-11T13:54:13;3.35;;;2.33;;
17631;SDS011;8934;51.194;17.150;2023-03-11T13:57:15;4.60;;;2.50;;
17631;SDS011;8934;51.194;17.150;2023-03-11T14:00:13;4.60;;;2.88;;
17631;SDS011;8934;51.194;17.150;2023-03-11T14:03:02;6.32;;;3.30;;
17631;SDS011;8934;51.194;17.150;2023-03-11T14:05:59;5.45;;;3.03;;
17631;SDS011;8934;51.194;17.150;2023-03-11T14:08:51;4.88;;;3.20;;
17631;SDS011;8934;51.194;17.150;2023-03-11T14:11:39;5.22;;;3.20;;
17631;SDS011;8934;51.194;17.150;2023-03-11T14:14:42;6.05;;;3.58;;
17631;SDS011;8934;51.194;17.150;2023-03-11T14:17:34;3.80;;;2.85;;
17631;SDS011;8934;51.194;17.150;2023-03-11T14:20:22;4.43;;;3.40;;
17631;SDS011;8934;51.194;17.150;2023-03-11T14:23:16;11.82;;;6.80;;
17631;SDS011;8934;51.194;17.150;2023-03-11T14:26:05;6.25;;;3.97;;
17631;SDS011;8934;51.194;17.150;2023-03-11T14:28:55;6.10;;;3.70;;
17631;SDS011;8934;51.194;17.150;2023-03-11T14:31:45;5.47;;;3.42;;
17631;SDS011;8934;51.194;17.150;2023-03-11T14:34:38;4.32;;;3.42;;
17631;SDS011;8934;51.194;17.150;2023-03-11T14:37:29;8.23;;;3.38;;
17631;SDS011;8934;51.194;17.150;2023-03-11T14:40:22;3.58;;;3.00;;
17631;SDS011;8934;51.194;17.150;2023-03-11T14:43:11;3.88;;;2.83;;
17631;SDS011;8934;51.194;17.150;2023-03-11T14:45:59;6.57;;;3.50;;
17631;SDS011;8934;51.194;17.150;2023-03-11T14:48:47;5.38;;;3.17;;
17631;SDS011;8934;51.194;17.150;2023-03-11T14:51:36;4.78;;;3.30;;
17631;SDS011;8934;51.194;17.150;2023-03-11T14:54:24;5.05;;;3.38;;
17631;SDS011;8934;51.194;17.150;2023-03-11T14:57:20;4.97;;;3.30;;
17631;SDS011;8934;51.194;17.150;2023-03-11T15:00:12;4.70;;;2.90;;
17631;SDS011;8934;51.194;17.150;2023-03-11T15:03:09;5.38;;;2.90;;
17631;SDS011;8934;51.194;17.150;2023-03-11T15:06:02;5.78;;;3.28;;
17631;SDS011;8934;51.194;17.150;2023-03-11T15:08:54;4.80;;;2.97;;
17631;SDS011;8934;51.194;17.150;2023-03-11T15:11:45;5.47;;;3.72;;
17631;SDS011;8934;51.194;17.150;2023-03-11T15:14:35;8.18;;;3.58;;
17631;SDS011;8934;51.194;17.150;2023-03-11T15:17:34;4.57;;;3.13;;
17631;SDS011;8934;51.194;17.150;2023-03-11T15:20:30;4.20;;;2.90;;
17631;SDS011;8934;51.194;17.150;2023-03-11T15:23:19;7.55;;;3.70;;
17631;SDS011;8934;51.194;17.150;2023-03-11T15:26:13;6.30;;;3.22;;
17631;SDS011;8934;51.194;17.150;2023-03-11T15:29:11;4.63;;;2.75;;
17631;SDS011;8934;51.194;17.150;2023-03-11T15:35:13;4.60;;;3.30;;
17631;SDS011;8934;51.194;17.150;2023-03-11T15:38:10;6.50;;;4.57;;
17631;SDS011;8934;51.194;17.150;2023-03-11T15:41:08;5.45;;;3.80;;
17631;SDS011;8934;51.194;17.150;2023-03-11T15:43:57;5.15;;;3.25;;
17631;SDS011;8934;51.194;17.150;2023-03-11T15:46:48;6.13;;;3.92;;
17631;SDS011;8934;51.194;17.150;2023-03-11T15:49:36;6.00;;;4.00;;
17631;SDS011;8934;51.194;17.150;2023-03-11T15:52:24;5.18;;;3.38;;
17631;SDS011;8934;51.194;17.150;2023-03-11T15:55:12;5.32;;;3.42;;
17631;SDS011;8934;51.194;17.150;2023-03-11T15:58:01;4.03;;;2.65;;
17631;SDS011;8934;51.194;17.150;2023-03-11T16:00:52;5.93;;;3.03;;
17631;SDS011;8934;51.194;17.150;2023-03-11T16:03:41;6.90;;;3.80;;
17631;SDS011;8934;51.194;17.150;2023-03-11T16:06:31;4.93;;;3.15;;
17631;SDS011;8934;51.194;17.150;2023-03-11T16:09:18;4.72;;;3.33;;
17631;SDS011;8934;51.194;17.150;2023-03-11T16:12:13;4.20;;;3.00;;
17631;SDS011;8934;51.194;17.150;2023-03-11T16:15:03;3.78;;;2.50;;
17631;SDS011;8934;51.194;17.150;2023-03-11T16:17:52;5.03;;;2.97;;
17631;SDS011;8934;51.194;17.150;2023-03-11T16:20:40;5.50;;;2.50;;
17631;SDS011;8934;51.194;17.150;2023-03-11T16:23:32;5.55;;;2.67;;
17631;SDS011;8934;51.194;17.150;2023-03-11T16:26:36;3.60;;;2.65;;
17631;SDS011;8934;51.194;17.150;2023-03-11T16:29:24;4.47;;;2.40;;
17631;SDS011;8934;51.194;17.150;2023-03-11T16:32:11;7.07;;;3.22;;
17631;SDS011;8934;51.194;17.150;2023-03-11T16:34:59;4.85;;;3.17;;
17631;SDS011;8934;51.194;17.150;2023-03-11T16:37:47;4.47;;;2.83;;
17631;SDS011;8934;51.194;17.150;2023-03-11T16:40:36;4.05;;;2.40;;
17631;SDS011;8934;51.194;17.150;2023-03-11T16:43:24;3.67;;;2.60;;
17631;SDS011;8934;51.194;17.150;2023-03-11T16:46:12;5.47;;;2.65;;
17631;SDS011;8934;51.194;17.150;2023-03-11T16:48:59;3.40;;;2.55;;
17631;SDS011;8934;51.194;17.150;2023-03-11T16:51:47;5.00;;;2.85;;
17631;SDS011;8934;51.194;17.150;2023-03-11T16:54:34;3.55;;;2.33;;
17631;SDS011;8934;51.194;17.150;2023-03-11T16:57:23;5.65;;;2.50;;
17631;SDS011;8934;51.194;17.150;2023-03-11T17:00:12;5.32;;;3.60;;
17631;SDS011;8934;51.194;17.150;2023-03-11T17:03:00;12.02;;;3.90;;
17631;SDS011;8934;51.194;17.150;2023-03-11T17:05:48;6.07;;;3.45;;
17631;SDS011;8934;51.194;17.150;2023-03-11T17:08:36;5.70;;;3.70;;
17631;SDS011;8934;51.194;17.150;2023-03-11T17:11:24;6.53;;;3.78;;
17631;SDS011;8934;51.194;17.150;2023-03-11T17:14:15;6.30;;;3.45;;
17631;SDS011;8934;51.194;17.150;2023-03-11T17:17:02;7.30;;;4.18;;
17631;SDS011;8934;51.194;17.150;2023-03-11T17:19:50;6.65;;;3.55;;
17631;SDS011;8934;51.194;17.150;2023-03-11T17:22:38;5.05;;;2.75;;
17631;SDS011;8934;51.194;17.150;2023-03-11T17:25:25;6.38;;;3.30;;
17631;SDS011;8934;51.194;17.150;2023-03-11T17:28:13;5.43;;;3.17;;
17631;SDS011;8934;51.194;17.150;2023-03-11T17:31:02;9.10;;;4.40;;
17631;SDS011;8934;51.194;17.150;2023-03-11T17:33:52;9.27;;;3.90;;
17631;SDS011;8934;51.194;17.150;2023-03-11T17:36:39;5.35;;;3.10;;
17631;SDS011;8934;51.194;17.150;2023-03-11T17:39:27;5.60;;;3.20;;
17631;SDS011;8934;51.194;17.150;2023-03-11T17:42:14;6.22;;;2.80;;
17631;SDS011;8934;51.194;17.150;2023-03-11T17:45:03;8.38;;;3.30;;